Time;durP1;ratioP1;P1;durP2;ratioP2;P2;SDS_P1;SDS_P2;PMS_P1;PMS_P2;Temp;Humidity;BMP_temperature;BMP_pressure;BME280_temperature;BME280_humidity;BME280_pressure;Samples;Min_cycle;Max_cycle;Signal;HPM_P1;HPM_P2
2021/12/11 00:01:19;;;;;;;18.85;10.02;;;6.60;99.90;;;;;;4976855;28;20225;-83
2021/12/11 00:03:56;;;;;;;12.40;9.82;;;6.70;99.90;;;;;;4959242;28;20635;-80
2021/12/11 00:06:29;;;;;;;12.57;10.90;;;6.70;99.90;;;;;;4976869;28;20189;-86
2021/12/11 00:08:59;;;;;;;14.43;10.57;;;6.70;99.90;;;;;;4976782;28;20354;-81
2021/12/11 00:11:33;;;;;;;13.77;10.77;;;6.70;99.90;;;;;;4976093;28;20224;-82
2021/12/11 00:14:02;;;;;;;11.15;9.68;;;6.40;99.90;;;;;;4976793;28;20180;-85
2021/12/11 00:16:31;;;;;;;10.98;9.68;;;6.20;99.90;;;;;;4976222;28;20213;-85
2021/12/11 00:19:02;;;;;;;12.48;10.45;;;6.30;99.90;;;;;;4976324;28;20265;-84
2021/12/11 00:21:29;;;;;;;14.77;9.20;;;6.10;99.90;;;;;;4975892;28;20162;-85
2021/12/11 00:24:04;;;;;;;11.48;8.90;;;5.90;99.90;;;;;;4975954;28;20209;-85
2021/12/11 00:26:53;;;;;;;12.57;10.13;;;6.00;99.90;;;;;;4975919;28;20671;-78
2021/12/11 00:29:25;;;;;;;11.75;10.05;;;6.00;99.90;;;;;;4976270;28;20169;-81
2021/12/11 00:31:57;;;;;;;13.18;9.63;;;6.00;99.90;;;;;;4959462;28;20178;-80
2021/12/11 00:34:24;;;;;;;10.75;9.50;;;6.10;99.90;;;;;;4993834;28;20164;-77
2021/12/11 00:37:03;;;;;;;9.43;8.48;;;6.30;99.90;;;;;;4994380;28;20225;-78
2021/12/11 00:39:31;;;;;;;11.55;9.75;;;6.30;99.90;;;;;;4995876;28;20162;-78
2021/12/11 00:42:00;;;;;;;13.65;10.73;;;6.50;99.90;;;;;;4994411;28;20236;-78
2021/12/11 00:44:43;;;;;;;10.30;9.18;;;6.70;99.90;;;;;;4997437;28;20193;-80
2021/12/11 00:47:16;;;;;;;10.13;8.95;;;6.60;99.90;;;;;;4998793;28;20204;-78
2021/12/11 00:49:55;;;;;;;9.73;8.65;;;6.40;99.90;;;;;;4999190;28;20178;-79
2021/12/11 00:52:36;;;;;;;10.93;8.23;;;6.40;99.90;;;;;;4998170;28;20178;-81
2021/12/11 00:55:16;;;;;;;9.13;8.23;;;6.30;99.90;;;;;;4961710;28;20533;-86
2021/12/11 00:57:42;;;;;;;8.48;7.68;;;6.30;99.90;;;;;;4975184;28;20192;-84
2021/12/11 01:00:17;;;;;;;9.57;8.55;;;6.40;99.90;;;;;;4974705;28;20189;-83
2021/12/11 01:02:45;;;;;;;14.25;8.85;;;6.60;99.90;;;;;;4957688;28;20173;-84
2021/12/11 01:05:10;;;;;;;14.63;9.55;;;6.70;99.90;;;;;;4975199;28;20663;-80
2021/12/11 01:07:37;;;;;;;12.60;9.68;;;6.60;99.90;;;;;;4974865;28;20232;-82
2021/12/11 01:10:23;;;;;;;11.35;8.63;;;6.60;99.90;;;;;;4974448;28;20593;-80
2021/12/11 01:13:00;;;;;;;11.82;8.52;;;6.60;99.90;;;;;;4974460;28;20195;-85
2021/12/11 01:15:45;;;;;;;9.30;8.02;;;6.50;99.90;;;;;;4974499;28;20174;-85
2021/12/11 01:21:05;;;;;;;7.70;6.90;;;6.70;99.90;;;;;;4974832;28;20174;-81
2021/12/11 01:26:13;;;;;;;8.88;7.15;;;6.60;99.90;;;;;;4974428;28;20188;-85
2021/12/11 01:28:38;;;;;;;8.00;7.30;;;6.60;99.90;;;;;;4974222;28;20261;-78
2021/12/11 01:31:08;;;;;;;9.52;8.15;;;6.50;99.90;;;;;;4974431;28;20204;-85
2021/12/11 01:33:35;;;;;;;8.73;7.85;;;6.50;99.90;;;;;;4974406;28;20558;-82
2021/12/11 01:36:02;;;;;;;10.80;8.35;;;6.50;99.90;;;;;;4974971;28;20170;-80
2021/12/11 01:38:30;;;;;;;11.73;8.98;;;6.60;99.90;;;;;;4956984;28;20684;-82
2021/12/11 01:41:07;;;;;;;10.55;8.43;;;6.50;99.90;;;;;;4937709;28;1073781;-84
2021/12/11 01:43:36;;;;;;;8.63;7.88;;;6.40;99.90;;;;;;4974891;28;20202;-82
2021/12/11 01:46:03;;;;;;;10.02;8.07;;;6.40;99.90;;;;;;4974345;28;20305;-81
2021/12/11 01:48:37;;;;;;;11.20;8.85;;;6.40;99.90;;;;;;4974736;28;20170;-80
2021/12/11 01:51:15;;;;;;;9.07;8.18;;;6.60;99.90;;;;;;4975149;28;20188;-81
2021/12/11 01:53:48;;;;;;;8.98;7.97;;;6.80;99.90;;;;;;4981544;28;20166;-82
2021/12/11 01:56:18;;;;;;;15.77;8.35;;;6.80;99.90;;;;;;4984674;28;20178;-80
2021/12/11 01:59:04;;;;;;;14.48;8.45;;;6.80;99.90;;;;;;4984842;28;20650;-81
2021/12/11 02:01:36;;;;;;;11.35;7.03;;;6.80;99.90;;;;;;4966844;28;20549;-84
2021/12/11 02:04:04;;;;;;;13.50;7.70;;;6.90;99.90;;;;;;4973309;28;20249;-86
2021/12/11 02:06:33;;;;;;;12.80;8.40;;;6.70;99.90;;;;;;4957337;28;20261;-84
2021/12/11 02:09:06;;;;;;;7.85;7.07;;;6.70;99.90;;;;;;4974654;28;20169;-86
2021/12/11 02:11:32;;;;;;;8.43;7.10;;;6.80;99.90;;;;;;4974528;28;20197;-85
2021/12/11 02:14:03;;;;;;;9.40;6.32;;;6.80;99.90;;;;;;4974594;28;20652;-85
2021/12/11 02:16:34;;;;;;;10.25;7.03;;;6.80;99.90;;;;;;4974545;28;20854;-86
2021/12/11 02:19:06;;;;;;;11.82;5.60;;;6.70;99.90;;;;;;4974419;28;20529;-85
2021/12/11 02:21:36;;;;;;;5.53;4.43;;;6.60;99.90;;;;;;4974499;28;20165;-85
2021/12/11 02:24:10;;;;;;;8.93;3.80;;;6.50;99.90;;;;;;4974262;28;20201;-83
2021/12/11 02:26:39;;;;;;;6.93;2.22;;;6.30;99.90;;;;;;4974210;28;20189;-81
2021/12/11 02:29:20;;;;;;;7.32;2.45;;;6.30;99.90;;;;;;4974861;28;20169;-85
2021/12/11 02:32:03;;;;;;;8.27;1.60;;;6.40;99.90;;;;;;4975096;28;20182;-80
2021/12/11 02:34:53;;;;;;;4.68;1.73;;;6.50;99.90;;;;;;4974401;28;20173;-85
2021/12/11 02:37:28;;;;;;;4.25;0.55;;;6.60;99.90;;;;;;4974179;28;20193;-85
2021/12/11 02:39:59;;;;;;;6.13;1.17;;;6.60;99.90;;;;;;4974676;28;20307;-79
2021/12/11 02:42:37;;;;;;;2.90;1.00;;;6.60;99.90;;;;;;4974491;28;20240;-85
2021/12/11 02:45:27;;;;;;;5.55;0.93;;;6.60;99.90;;;;;;4974766;28;20212;-82
2021/12/11 02:48:27;;;;;;;6.10;0.90;;;6.50;99.90;;;;;;4974572;28;20545;-79
2021/12/11 02:51:05;;;;;;;1.77;0.95;;;6.50;99.90;;;;;;4974262;28;20266;-86
2021/12/11 02:53:38;;;;;;;4.22;0.80;;;6.50;99.90;;;;;;4974009;28;20166;-83
2021/12/11 02:56:17;;;;;;;9.32;0.93;;;6.60;99.90;;;;;;4974109;28;20170;-82
2021/12/11 02:58:49;;;;;;;6.60;1.08;;;6.80;99.90;;;;;;4974333;28;20170;-85
2021/12/11 03:01:35;;;;;;;3.50;1.00;;;6.90;99.90;;;;;;4974562;28;20724;-83
2021/12/11 03:04:22;;;;;;;3.10;1.08;;;6.80;99.90;;;;;;4973975;28;20204;-84
2021/12/11 03:06:50;;;;;;;5.88;1.23;;;6.90;99.90;;;;;;4974383;28;20202;-84
2021/12/11 03:09:20;;;;;;;5.40;1.58;;;6.90;99.90;;;;;;4974363;28;20178;-85
2021/12/11 03:11:46;;;;;;;9.13;1.38;;;6.90;99.90;;;;;;4974234;28;20166;-78
2021/12/11 03:14:14;;;;;;;5.70;0.90;;;6.90;99.90;;;;;;4974694;28;20628;-86
2021/12/11 03:16:42;;;;;;;4.85;1.13;;;6.80;99.90;;;;;;4977508;28;20229;-77
2021/12/11 03:19:15;;;;;;;3.42;1.67;;;6.80;99.90;;;;;;4977486;28;20990;-85
2021/12/11 03:21:41;;;;;;;5.57;1.55;;;6.80;99.90;;;;;;4960330;28;20169;-83
2021/12/11 03:24:08;;;;;;;8.57;2.70;;;6.90;99.90;;;;;;4977342;28;20205;-85
2021/12/11 03:26:35;;;;;;;16.45;2.53;;;6.90;99.90;;;;;;4977401;28;20198;-83
2021/12/11 03:29:01;;;;;;;6.85;1.73;;;7.00;99.90;;;;;;4960574;28;20174;-86
2021/12/11 03:31:27;;;;;;;13.07;3.35;;;6.80;99.90;;;;;;4977626;28;20170;-82
2021/12/11 03:33:56;;;;;;;7.70;2.53;;;6.70;99.90;;;;;;4977694;28;20180;-85
2021/12/11 03:36:23;;;;;;;16.92;2.67;;;6.60;99.90;;;;;;4977102;28;20221;-82
2021/12/11 03:38:56;;;;;;;11.02;2.45;;;6.60;99.90;;;;;;4977211;28;20170;-86
2021/12/11 03:41:23;;;;;;;11.10;2.60;;;6.60;99.90;;;;;;4977209;28;20552;-86
2021/12/11 03:43:49;;;;;;;15.40;3.53;;;6.60;99.90;;;;;;4976937;28;20202;-86
2021/12/11 03:46:16;;;;;;;9.65;2.60;;;6.60;99.90;;;;;;4977113;28;20248;-86
2021/12/11 03:48:48;;;;;;;11.48;2.97;;;6.60;99.90;;;;;;4977242;28;20194;-82
2021/12/11 03:51:17;;;;;;;4.25;2.40;;;6.70;99.90;;;;;;4977994;28;20174;-86
2021/12/11 03:53:43;;;;;;;9.15;2.90;;;6.70;99.90;;;;;;4976925;28;20175;-79
2021/12/11 03:56:12;;;;;;;12.98;3.65;;;6.80;99.90;;;;;;4977208;28;20221;-85
2021/12/11 03:58:38;;;;;;;11.13;2.85;;;6.80;99.90;;;;;;4976893;28;20185;-86
2021/12/11 04:01:17;;;;;;;5.47;2.00;;;7.00;99.90;;;;;;4977078;28;20170;-86
2021/12/11 04:03:46;;;;;;;12.57;2.45;;;7.00;99.90;;;;;;4976481;28;20208;-86
2021/12/11 04:06:14;;;;;;;4.13;2.38;;;7.00;99.90;;;;;;4976638;28;20633;-85
2021/12/11 04:08:41;;;;;;;18.08;1.90;;;7.10;99.90;;;;;;4976794;28;20190;-85
2021/12/11 04:11:22;;;;;;;10.82;2.08;;;7.30;99.90;;;;;;4976595;28;20177;-85
2021/12/11 04:13:51;;;;;;;19.52;2.58;;;7.20;99.90;;;;;;4959603;28;20262;-80
2021/12/11 04:16:19;;;;;;;13.43;2.45;;;7.20;99.90;;;;;;4976284;28;20528;-84
2021/12/11 04:18:45;;;;;;;11.88;1.85;;;7.40;99.90;;;;;;4976646;28;20181;-85
2021/12/11 04:21:11;;;;;;;10.63;2.40;;;7.50;99.90;;;;;;4976385;28;20170;-81
2021/12/11 04:23:37;;;;;;;16.67;1.75;;;7.70;99.90;;;;;;4959206;28;20205;-85
2021/12/11 04:26:04;;;;;;;6.55;2.15;;;7.70;99.90;;;;;;4975194;28;20582;-83
2021/12/11 04:28:32;;;;;;;8.63;1.88;;;7.90;99.90;;;;;;4976203;28;20248;-86
2021/12/11 04:31:04;;;;;;;7.25;1.88;;;7.90;99.90;;;;;;4976289;28;20663;-85
2021/12/11 04:33:33;;;;;;;8.90;2.13;;;7.90;99.90;;;;;;4976239;28;20229;-86
2021/12/11 04:36:00;;;;;;;11.70;2.83;;;7.90;99.90;;;;;;4976232;28;20232;-85
2021/12/11 04:38:26;;;;;;;5.05;2.50;;;7.90;99.90;;;;;;4975841;28;20269;-79
2021/12/11 04:40:55;;;;;;;7.78;1.92;;;8.20;99.90;;;;;;4976158;28;20213;-82
2021/12/11 04:43:23;;;;;;;8.45;2.60;;;8.10;99.90;;;;;;4976415;28;20289;-85
2021/12/11 04:45:54;;;;;;;13.15;2.42;;;8.20;99.90;;;;;;4958936;28;20174;-83
2021/12/11 04:48:52;;;;;;;12.55;3.22;;;8.10;99.90;;;;;;4976172;28;20268;-85
2021/12/11 04:51:30;;;;;;;13.40;4.07;;;8.10;99.90;;;;;;4976371;28;20189;-86
2021/12/11 04:59:45;;;;;;;12.43;4.07;;;7.90;99.90;;;;;;4976339;28;20228;-83
2021/12/11 05:05:27;;;;;;;15.43;3.75;;;7.80;99.90;;;;;;4975890;28;20217;-80
2021/12/11 05:10:41;;;;;;;13.57;3.58;;;7.80;99.90;;;;;;4976164;28;20620;-78
2021/12/11 05:13:07;;;;;;;11.85;3.40;;;7.70;99.90;;;;;;4975896;28;20192;-79
2021/12/11 05:15:39;;;;;;;18.98;2.92;;;7.50;99.90;;;;;;4975680;28;20633;-86
2021/12/11 05:18:09;;;;;;;18.17;3.65;;;7.50;99.90;;;;;;4975664;28;20221;-86
2021/12/11 05:20:35;;;;;;;18.83;3.33;;;7.50;99.90;;;;;;4975953;28;20166;-86
2021/12/11 05:23:01;;;;;;;9.50;3.28;;;7.40;99.90;;;;;;4975547;28;20248;-86
2021/12/11 05:25:27;;;;;;;10.88;3.63;;;7.40;99.90;;;;;;4975422;28;20256;-85
2021/12/11 05:27:54;;;;;;;20.65;5.68;;;7.30;99.90;;;;;;4975515;28;20186;-83
2021/12/11 05:30:29;;;;;;;15.70;7.10;;;7.30;99.90;;;;;;4957849;28;20181;-83
2021/12/11 05:32:58;;;;;;;20.73;8.25;;;7.30;99.90;;;;;;4958365;28;20250;-79
2021/12/11 05:35:24;;;;;;;22.63;9.32;;;7.30;99.90;;;;;;4977234;28;20644;-86
2021/12/11 05:37:50;;;;;;;38.03;10.88;;;7.30;99.90;;;;;;4964412;28;20193;-84
2021/12/11 05:40:19;;;;;;;19.92;8.75;;;7.30;99.90;;;;;;4981629;28;20630;-79
2021/12/11 05:42:46;;;;;;;30.58;10.30;;;7.10;99.90;;;;;;4980870;28;20193;-80
2021/12/11 05:45:12;;;;;;;26.50;7.05;;;7.00;99.90;;;;;;4979530;28;20235;-79
2021/12/11 05:47:37;;;;;;;15.98;6.68;;;7.10;99.90;;;;;;4979493;28;20190;-83
2021/12/11 05:50:11;;;;;;;20.13;5.88;;;7.10;99.90;;;;;;4983934;28;20170;-85
2021/12/11 05:52:37;;;;;;;22.77;6.07;;;7.00;99.90;;;;;;4983387;28;20527;-87
2021/12/11 05:55:05;;;;;;;24.98;4.50;;;6.90;99.90;;;;;;4980182;28;20197;-82
2021/12/11 05:57:31;;;;;;;20.65;5.45;;;6.80;99.90;;;;;;4975180;28;20181;-86
2021/12/11 05:59:58;;;;;;;18.17;5.25;;;6.90;99.90;;;;;;4974855;28;20243;-82
2021/12/11 06:02:27;;;;;;;14.20;4.10;;;6.80;99.90;;;;;;4974589;28;20173;-84
2021/12/11 06:04:55;;;;;;;16.92;3.10;;;6.80;99.90;;;;;;4974430;28;20260;-84
2021/12/11 06:07:24;;;;;;;9.70;3.33;;;7.00;99.90;;;;;;4974599;28;20612;-84
2021/12/11 06:09:54;;;;;;;12.60;2.88;;;7.10;99.90;;;;;;4974223;28;20548;-80
2021/12/11 06:12:20;;;;;;;21.77;4.25;;;6.90;99.90;;;;;;4974245;28;20174;-79
2021/12/11 06:14:48;;;;;;;10.90;2.80;;;6.90;99.90;;;;;;4974392;28;20186;-85
2021/12/11 06:17:18;;;;;;;27.05;4.18;;;6.70;99.90;;;;;;4957785;28;20197;-84
2021/12/11 06:19:50;;;;;;;17.23;3.50;;;6.60;99.90;;;;;;4977274;28;20162;-83
2021/12/11 06:22:19;;;;;;;12.50;3.63;;;6.50;99.90;;;;;;4974450;28;20169;-85
2021/12/11 06:24:45;;;;;;;17.25;3.95;;;6.40;99.90;;;;;;4974509;28;20675;-85
2021/12/11 06:27:10;;;;;;;24.63;3.90;;;6.40;99.90;;;;;;4974717;28;20288;-79
2021/12/11 06:29:36;;;;;;;21.20;5.18;;;6.50;99.90;;;;;;4974805;28;20253;-82
2021/12/11 06:32:03;;;;;;;21.77;5.35;;;6.60;99.90;;;;;;4975336;28;20164;-84
2021/12/11 06:34:29;;;;;;;23.50;4.93;;;6.60;99.90;;;;;;4975693;28;20182;-84
2021/12/11 06:36:55;;;;;;;28.88;5.03;;;6.60;99.90;;;;;;4980230;28;20178;-83
2021/12/11 06:39:24;;;;;;;7.15;3.42;;;6.60;99.90;;;;;;4984848;28;20286;-84
2021/12/11 06:41:54;;;;;;;14.70;3.88;;;6.50;99.90;;;;;;4983924;28;20188;-85
2021/12/11 06:44:27;;;;;;;21.33;3.45;;;6.50;99.90;;;;;;4985202;28;20256;-82
2021/12/11 06:46:54;;;;;;;13.73;2.80;;;6.30;99.90;;;;;;4978215;28;20544;-83
2021/12/11 06:49:20;;;;;;;14.40;3.10;;;6.40;99.90;;;;;;4977140;28;20166;-81
2021/12/11 06:51:46;;;;;;;22.52;3.38;;;6.30;99.90;;;;;;4978152;28;20217;-81
2021/12/11 06:54:11;;;;;;;11.23;2.63;;;6.50;99.90;;;;;;4977822;28;20161;-83
2021/12/11 06:56:42;;;;;;;15.95;3.65;;;6.30;99.90;;;;;;4977503;28;20228;-84
2021/12/11 06:59:09;;;;;;;23.00;3.08;;;6.30;99.90;;;;;;4960613;28;20194;-86
2021/12/11 07:01:36;;;;;;;16.23;2.75;;;6.20;99.90;;;;;;4977643;28;20224;-80
2021/12/11 07:04:05;;;;;;;18.20;2.50;;;6.10;99.90;;;;;;4977813;28;20213;-80
2021/12/11 07:06:31;;;;;;;17.88;3.42;;;6.20;99.90;;;;;;4977938;28;20178;-83
2021/12/11 07:09:00;;;;;;;6.85;2.47;;;6.30;99.90;;;;;;4978317;28;20158;-85
2021/12/11 07:11:26;;;;;;;15.25;2.90;;;6.20;99.90;;;;;;4960382;28;20169;-82
2021/12/11 07:13:51;;;;;;;20.38;5.00;;;6.10;99.90;;;;;;4978023;28;20185;-83
2021/12/11 07:16:17;;;;;;;46.75;18.85;;;6.10;99.90;;;;;;4978123;28;20166;-79
2021/12/11 07:18:44;;;;;;;51.55;16.33;;;6.20;99.90;;;;;;4978034;28;20193;-85
2021/12/11 07:21:10;;;;;;;19.73;10.95;;;6.20;99.90;;;;;;4978155;28;20228;-86
2021/12/11 07:23:37;;;;;;;19.73;6.38;;;6.10;99.90;;;;;;4977758;28;20194;-85
2021/12/11 07:26:12;;;;;;;7.75;4.07;;;6.00;99.90;;;;;;4977989;28;20185;-83
2021/12/11 07:28:39;;;;;;;21.75;5.38;;;5.90;99.90;;;;;;4979074;28;20249;-86
2021/12/11 07:31:05;;;;;;;11.10;4.15;;;5.90;99.90;;;;;;4978744;28;20243;-85
2021/12/11 07:33:31;;;;;;;18.63;3.80;;;5.80;99.90;;;;;;4978212;28;20173;-84
2021/12/11 07:35:57;;;;;;;17.35;3.40;;;5.80;99.90;;;;;;4977822;28;20166;-81
2021/12/11 07:38:23;;;;;;;23.83;3.78;;;5.80;99.90;;;;;;4976291;28;20656;-77
2021/12/11 07:40:53;;;;;;;9.23;2.97;;;5.90;99.90;;;;;;4976796;28;20193;-77
2021/12/11 07:43:21;;;;;;;15.82;3.40;;;5.80;99.90;;;;;;4976447;28;20177;-77
2021/12/11 07:45:48;;;;;;;7.57;2.97;;;5.70;99.90;;;;;;4975582;28;20738;-80
2021/12/11 07:48:14;;;;;;;18.63;3.50;;;5.70;99.90;;;;;;4976489;28;20336;-81
2021/12/11 07:50:40;;;;;;;11.77;3.63;;;5.70;99.90;;;;;;4976094;28;20222;-76
2021/12/11 07:53:06;;;;;;;10.82;3.28;;;5.70;99.90;;;;;;4975697;28;20174;-77
2021/12/11 07:55:33;;;;;;;27.77;3.75;;;5.70;99.90;;;;;;4975767;28;20173;-81
2021/12/11 07:58:00;;;;;;;10.88;3.80;;;5.80;99.90;;;;;;4975759;28;20212;-83
2021/12/11 08:00:26;;;;;;;16.92;3.63;;;5.80;99.90;;;;;;4975600;28;20165;-84
2021/12/11 08:02:53;;;;;;;13.82;3.38;;;5.80;99.90;;;;;;4975625;28;20170;-78
2021/12/11 08:05:19;;;;;;;13.10;3.40;;;5.70;99.90;;;;;;4976194;28;20577;-81
2021/12/11 08:07:44;;;;;;;31.90;4.55;;;5.70;99.90;;;;;;4958427;28;20253;-78
2021/12/11 08:10:15;;;;;;;20.73;3.35;;;5.80;99.90;;;;;;4976201;28;20173;-86
2021/12/11 08:12:41;;;;;;;13.65;3.90;;;5.80;99.90;;;;;;4975740;28;20174;-83
2021/12/11 08:15:08;;;;;;;9.82;3.35;;;5.90;99.90;;;;;;4975808;28;20704;-85
2021/12/11 08:17:34;;;;;;;8.20;3.40;;;5.80;99.90;;;;;;4975951;28;20274;-82
2021/12/11 08:19:59;;;;;;;19.63;3.95;;;5.80;99.90;;;;;;4976143;28;20202;-84
2021/12/11 08:22:25;;;;;;;13.70;3.72;;;5.60;99.90;;;;;;4975982;28;20720;-75
2021/12/11 08:24:51;;;;;;;13.75;3.97;;;5.50;99.90;;;;;;4976541;28;20212;-77
2021/12/11 08:27:20;;;;;;;12.77;4.80;;;5.40;99.90;;;;;;4975481;28;20316;-83
2021/12/11 08:29:49;;;;;;;8.73;3.20;;;5.50;99.90;;;;;;4976027;28;20170;-76
2021/12/11 08:32:15;;;;;;;14.32;3.70;;;5.70;99.90;;;;;;4987434;28;20250;-80
2021/12/11 08:34:41;;;;;;;19.40;4.38;;;5.60;99.90;;;;;;4999760;28;20162;-82
2021/12/11 08:37:09;;;;;;;25.33;4.93;;;5.70;99.90;;;;;;4999860;28;20236;-77
2021/12/11 08:39:36;;;;;;;9.43;4.35;;;5.80;99.90;;;;;;5000013;28;20159;-78
2021/12/11 08:42:04;;;;;;;13.90;3.90;;;5.70;99.90;;;;;;4999779;28;20205;-81
2021/12/11 08:44:35;;;;;;;10.88;3.60;;;5.80;99.90;;;;;;4976810;28;20205;-83
2021/12/11 08:47:05;;;;;;;18.90;4.13;;;5.80;99.90;;;;;;4958917;28;20206;-86
2021/12/11 08:49:34;;;;;;;8.35;3.53;;;5.80;99.90;;;;;;4976890;28;20166;-77
2021/12/11 08:52:15;;;;;;;8.18;3.63;;;5.80;99.90;;;;;;4975317;28;20170;-77
2021/12/11 08:54:41;;;;;;;22.35;4.03;;;5.80;99.90;;;;;;4975944;28;20174;-80
2021/12/11 08:57:10;;;;;;;14.18;4.05;;;5.90;99.90;;;;;;4975685;28;20186;-81
2021/12/11 08:59:38;;;;;;;30.52;5.00;;;6.00;99.90;;;;;;4976138;28;20166;-78
2021/12/11 09:02:12;;;;;;;11.38;3.80;;;5.90;99.90;;;;;;4975210;28;20166;-86
2021/12/11 09:04:47;;;;;;;24.73;5.70;;;5.70;99.90;;;;;;4976715;28;20202;-91
2021/12/11 09:07:24;;;;;;;15.65;5.20;;;5.80;99.90;;;;;;4976034;28;20648;-89
2021/12/11 09:09:52;;;;;;;8.65;3.97;;;5.80;99.90;;;;;;4976599;28;20166;-87
2021/12/11 09:12:24;;;;;;;28.27;4.88;;;5.80;99.90;;;;;;4975426;28;20166;-91
2021/12/11 09:15:07;;;;;;;10.73;4.70;;;5.80;99.90;;;;;;4976149;28;20182;-89
2021/12/11 09:17:56;;;;;;;15.63;4.22;;;5.90;99.90;;;;;;4975031;28;20201;-77
2021/12/11 09:20:37;;;;;;;32.53;5.20;;;5.90;99.90;;;;;;4969416;28;20177;-85
2021/12/11 09:23:17;;;;;;;20.58;5.30;;;6.00;99.90;;;;;;4976176;28;20176;-83
2021/12/11 09:25:52;;;;;;;17.00;6.28;;;6.20;99.90;;;;;;4976413;28;20188;-92
2021/12/11 09:28:18;;;;;;;12.43;6.30;;;6.10;99.90;;;;;;4976297;28;20268;-90
2021/12/11 09:30:53;;;;;;;13.32;5.57;;;6.10;99.90;;;;;;4975534;28;20244;-91
2021/12/11 09:33:26;;;;;;;13.77;4.80;;;6.30;99.90;;;;;;4975323;28;20165;-84
2021/12/11 09:35:59;;;;;;;8.45;5.07;;;6.10;99.90;;;;;;4958142;28;20196;-89
2021/12/11 09:38:29;;;;;;;16.23;5.07;;;6.20;99.90;;;;;;4975619;28;20194;-85
2021/12/11 09:40:55;;;;;;;9.65;5.07;;;6.30;99.90;;;;;;4959772;28;20625;-85
2021/12/11 09:43:36;;;;;;;11.25;4.80;;;6.40;99.90;;;;;;4960437;28;20166;-94
2021/12/11 09:46:04;;;;;;;24.35;5.53;;;6.50;99.90;;;;;;4959750;28;20641;-90
2021/12/11 09:48:30;;;;;;;18.25;5.53;;;6.50;99.90;;;;;;4959175;28;20257;-87
2021/12/11 09:51:02;;;;;;;16.25;5.47;;;6.60;99.90;;;;;;4960622;28;20707;-84
2021/12/11 09:53:33;;;;;;;17.55;5.60;;;6.70;99.90;;;;;;4974276;28;20479;-92
2021/12/11 09:56:00;;;;;;;16.70;5.18;;;6.80;99.90;;;;;;4975675;28;20166;-88
2021/12/11 09:58:31;;;;;;;11.75;4.38;;;6.60;99.90;;;;;;4975300;28;20194;-84
2021/12/11 10:01:06;;;;;;;16.60;5.65;;;6.80;99.90;;;;;;4974481;28;20169;-88
2021/12/11 10:03:41;;;;;;;16.48;4.72;;;6.80;99.90;;;;;;4975767;28;20212;-86
2021/12/11 10:06:14;;;;;;;15.75;4.93;;;6.80;99.90;;;;;;4975800;28;20177;-84
2021/12/11 10:08:44;;;;;;;9.35;4.57;;;6.80;99.90;;;;;;4975789;28;20181;-88
2021/12/11 10:11:21;;;;;;;15.15;4.80;;;6.70;99.90;;;;;;4975835;28;20158;-90
2021/12/11 10:13:52;;;;;;;26.80;4.97;;;6.60;99.90;;;;;;4976038;28;20170;-79
2021/12/11 10:16:22;;;;;;;13.15;4.95;;;6.60;99.90;;;;;;4975473;28;20314;-81
2021/12/11 10:18:49;;;;;;;10.63;4.15;;;6.70;99.90;;;;;;4975338;28;20177;-85
2021/12/11 10:21:34;;;;;;;12.75;4.65;;;6.60;99.90;;;;;;4974530;28;20242;-83
2021/12/11 10:24:03;;;;;;;17.67;5.18;;;6.80;99.90;;;;;;4975154;28;20521;-80
2021/12/11 10:26:31;;;;;;;15.35;4.90;;;6.80;99.90;;;;;;4978544;28;20177;-79
2021/12/11 10:29:01;;;;;;;14.90;5.15;;;6.80;99.90;;;;;;4979118;28;20690;-77
2021/12/11 10:31:29;;;;;;;14.52;6.20;;;6.80;99.90;;;;;;4979410;28;20177;-86
2021/12/11 10:33:58;;;;;;;8.80;5.57;;;6.70;99.90;;;;;;4979419;28;20154;-78
2021/12/11 10:36:29;;;;;;;11.05;4.75;;;6.60;99.90;;;;;;4962212;28;20293;-89
2021/12/11 10:38:59;;;;;;;11.93;5.30;;;6.60;99.90;;;;;;4979862;28;20166;-85
2021/12/11 10:41:27;;;;;;;26.98;5.32;;;6.70;99.90;;;;;;4979363;28;20174;-89
2021/12/11 10:44:03;;;;;;;19.25;6.55;;;6.80;99.90;;;;;;4979880;28;20189;-89
2021/12/11 10:46:32;;;;;;;18.15;8.80;;;6.80;99.90;;;;;;4979366;28;20185;-86
2021/12/11 10:49:03;;;;;;;22.02;7.85;;;6.80;99.90;;;;;;4978967;28;20205;-85
2021/12/11 10:51:32;;;;;;;18.98;7.22;;;6.80;99.90;;;;;;4981636;28;20165;-78
2021/12/11 10:53:59;;;;;;;20.05;5.53;;;6.90;99.90;;;;;;4963071;28;20174;-81
2021/12/11 10:56:26;;;;;;;24.65;7.25;;;6.90;99.90;;;;;;4980328;28;20553;-78
2021/12/11 10:59:04;;;;;;;20.88;7.00;;;6.90;99.90;;;;;;4979368;28;20176;-87
2021/12/11 11:01:44;;;;;;;26.63;7.97;;;6.90;99.90;;;;;;4978317;28;20178;-86
2021/12/11 11:04:15;;;;;;;19.55;7.05;;;7.00;99.90;;;;;;4978993;28;20295;-81
2021/12/11 11:06:42;;;;;;;13.40;6.07;;;7.00;99.90;;;;;;4978424;28;20543;-78
2021/12/11 11:09:09;;;;;;;11.38;6.13;;;7.00;99.90;;;;;;4979947;28;20707;-90
2021/12/11 11:11:36;;;;;;;14.77;5.25;;;7.10;99.90;;;;;;4980865;28;20170;-78
2021/12/11 11:14:04;;;;;;;20.48;6.05;;;7.20;99.90;;;;;;4982458;28;20257;-87
2021/12/11 11:16:32;;;;;;;29.23;6.47;;;7.30;99.90;;;;;;4962263;28;20505;-82
2021/12/11 11:18:58;;;;;;;14.18;8.43;;;7.20;99.90;;;;;;4979363;28;20174;-90
2021/12/11 11:21:31;;;;;;;12.95;6.43;;;7.20;99.90;;;;;;4961550;28;20236;-77
2021/12/11 11:23:57;;;;;;;20.17;7.60;;;7.20;99.90;;;;;;4994848;28;20276;-84
2021/12/11 11:26:29;;;;;;;15.27;5.75;;;7.30;99.90;;;;;;4993613;28;20182;-85
2021/12/11 11:28:57;;;;;;;12.77;6.25;;;7.30;99.90;;;;;;4989537;28;20170;-91
2021/12/11 11:31:28;;;;;;;18.88;5.72;;;7.40;99.90;;;;;;4992292;28;20178;-79
2021/12/11 11:33:54;;;;;;;17.58;9.70;;;7.50;99.90;;;;;;4979675;28;20262;-89
2021/12/11 11:36:23;;;;;;;16.50;9.55;;;7.60;99.90;;;;;;4978468;28;20205;-87
2021/12/11 11:38:54;;;;;;;21.92;8.75;;;7.60;99.90;;;;;;4978311;28;20166;-80
2021/12/11 11:41:27;;;;;;;16.27;8.38;;;7.60;99.90;;;;;;4977132;28;20178;-78
2021/12/11 11:43:54;;;;;;;10.63;5.72;;;7.70;99.90;;;;;;4977744;28;20517;-82
2021/12/11 11:46:24;;;;;;;14.90;6.10;;;7.80;99.90;;;;;;4978428;28;20690;-78
2021/12/11 11:48:52;;;;;;;14.00;6.80;;;7.80;99.90;;;;;;4978476;28;20210;-87
2021/12/11 11:51:30;;;;;;;19.48;6.90;;;7.70;99.90;;;;;;4977277;28;20173;-84
2021/12/11 11:53:56;;;;;;;17.73;5.78;;;7.50;99.90;;;;;;4976795;28;20180;-85
2021/12/11 11:56:26;;;;;;;10.20;4.95;;;7.50;99.90;;;;;;4977014;28;20169;-78
2021/12/11 11:58:53;;;;;;;17.60;5.38;;;7.50;99.90;;;;;;4977364;28;20626;-79
2021/12/11 12:01:21;;;;;;;16.67;6.35;;;7.50;99.90;;;;;;4977322;28;20165;-82
2021/12/11 12:03:47;;;;;;;10.55;5.05;;;7.50;99.90;;;;;;4978520;28;20202;-88
2021/12/11 12:06:21;;;;;;;15.15;5.35;;;7.40;99.90;;;;;;4978180;28;20602;-83
2021/12/11 12:08:48;;;;;;;9.30;4.70;;;7.50;99.90;;;;;;4979769;28;20201;-82
2021/12/11 12:11:14;;;;;;;15.73;5.25;;;7.60;99.90;;;;;;4961292;28;20173;-81
2021/12/11 12:13:40;;;;;;;14.43;5.65;;;7.70;99.90;;;;;;4978437;28;20177;-80
2021/12/11 12:16:10;;;;;;;14.02;5.75;;;7.90;99.90;;;;;;4978521;28;20166;-83
2021/12/11 12:18:36;;;;;;;13.27;5.18;;;7.80;99.90;;;;;;4978681;28;20662;-91
2021/12/11 12:21:04;;;;;;;13.43;4.80;;;7.90;99.90;;;;;;4977831;28;20723;-84
2021/12/11 12:23:32;;;;;;;12.93;5.13;;;8.00;99.90;;;;;;4977089;28;20266;-82
2021/12/11 12:26:01;;;;;;;12.05;4.47;;;8.00;99.90;;;;;;4959543;28;20265;-88
2021/12/11 12:28:29;;;;;;;13.75;5.28;;;7.90;99.90;;;;;;4971475;28;20197;-87
2021/12/11 12:30:58;;;;;;;17.85;4.55;;;8.10;99.90;;;;;;4974895;28;20178;-81
2021/12/11 12:33:25;;;;;;;15.32;5.07;;;8.10;99.90;;;;;;4975388;28;20177;-85
2021/12/11 12:35:51;;;;;;;15.15;5.00;;;8.00;99.90;;;;;;4976164;28;20181;-78
2021/12/11 12:38:20;;;;;;;15.05;5.43;;;8.10;99.90;;;;;;4975450;28;20190;-93
2021/12/11 12:41:24;;;;;;;18.35;4.80;;;8.10;99.90;;;;;;4958275;28;20308;-78
2021/12/11 12:46:40;;;;;;;9.25;4.07;;;8.40;99.90;;;;;;4974821;28;20200;-78
2021/12/11 12:49:06;;;;;;;24.70;5.10;;;8.40;99.90;;;;;;4975188;28;20177;-76
2021/12/11 12:51:35;;;;;;;15.45;4.57;;;8.40;99.90;;;;;;4974811;28;20193;-85
2021/12/11 12:54:04;;;;;;;16.60;4.72;;;8.30;99.90;;;;;;4974337;28;20257;-76
2021/12/11 12:56:38;;;;;;;30.35;7.22;;;8.20;99.90;;;;;;4974532;28;20206;-76
2021/12/11 12:59:29;;;;;;;19.45;5.28;;;8.30;99.90;;;;;;4974545;28;20161;-76
2021/12/11 13:02:02;;;;;;;11.18;5.07;;;8.40;99.90;;;;;;4974108;28;20181;-76
2021/12/11 13:04:32;;;;;;;10.68;3.60;;;8.40;99.90;;;;;;4974311;28;20209;-82
2021/12/11 13:07:02;;;;;;;16.55;5.22;;;8.10;99.90;;;;;;4974713;28;20185;-77
2021/12/11 13:09:41;;;;;;;10.40;3.55;;;8.20;99.90;;;;;;4974905;28;20162;-77
2021/12/11 13:12:12;;;;;;;14.50;4.28;;;8.10;99.90;;;;;;4975007;28;20166;-79
2021/12/11 13:14:38;;;;;;;18.30;5.38;;;8.30;99.90;;;;;;4975265;28;20189;-77
2021/12/11 13:17:14;;;;;;;13.27;4.57;;;8.30;99.90;;;;;;4974960;28;20188;-82
2021/12/11 13:19:46;;;;;;;13.10;4.38;;;8.30;99.90;;;;;;4975249;28;20491;-77
2021/12/11 13:22:20;;;;;;;19.55;4.80;;;8.40;99.90;;;;;;4975338;28;20162;-80
2021/12/11 13:24:50;;;;;;;21.08;3.85;;;8.50;99.90;;;;;;4957620;28;20209;-76